createdAt,value
2018-04-10T00:02:13.842Z,93759.55
2018-04-10T00:04:42.106Z,93756.27
2018-04-10T00:07:11.126Z,93757.50
2018-04-10T00:09:39.361Z,93754.08
2018-04-10T00:12:07.619Z,93750.22
2018-04-10T00:14:35.872Z,93755.42
2018-04-10T00:17:04.141Z,93751.81
2018-04-10T00:19:32.395Z,93752.94
2018-04-10T00:22:01.426Z,93748.49
2018-04-10T00:24:29.676Z,93758.20
2018-04-10T00:26:58.681Z,93756.67
2018-04-10T00:29:27.719Z,93752.30
2018-04-10T00:31:55.962Z,93754.34
2018-04-10T00:34:24.986Z,93756.64
2018-04-10T00:36:53.242Z,93762.44
2018-04-10T00:39:22.258Z,93759.77
2018-04-10T00:41:50.503Z,93758.51
2018-04-10T00:44:19.522Z,93757.31
2018-04-10T00:46:47.768Z,93763.22
2018-04-10T00:49:16.790Z,93763.66
2018-04-10T00:51:45.812Z,93769.50
2018-04-10T00:54:14.075Z,93770.27
2018-04-10T00:56:42.329Z,93775.25
2018-04-10T00:59:10.583Z,93777.22
2018-04-10T01:01:38.843Z,93778.44
2018-04-10T01:04:07.103Z,93776.33
2018-04-10T01:06:35.342Z,93773.41
2018-04-10T01:09:03.606Z,93780.97
2018-04-10T01:11:31.860Z,93767.91
2018-04-10T01:14:00.110Z,93766.98
2018-04-10T01:16:28.361Z,93767.09
2018-04-10T01:18:56.626Z,93764.80
2018-04-10T01:21:24.888Z,93769.14
2018-04-10T01:23:53.133Z,93766.20
2018-04-10T01:26:22.139Z,93766.87
2018-04-10T01:28:50.400Z,93768.78
2018-04-10T01:31:19.412Z,93765.28
2018-04-10T01:33:47.662Z,93764.99
2018-04-10T01:36:17.008Z,93767.85
2018-04-10T01:38:45.263Z,93759.66
2018-04-10T01:41:13.885Z,93770.30
2018-04-10T01:43:42.157Z,93765.06
2018-04-10T01:46:10.393Z,93766.98
2018-04-10T01:48:38.672Z,93766.50
2018-04-10T01:51:06.902Z,93768.75
2018-04-10T01:53:35.163Z,93765.34
2018-04-10T01:56:04.188Z,93758.95
2018-04-10T01:58:32.426Z,93757.36
2018-04-10T02:01:01.454Z,93748.69
2018-04-10T02:03:29.698Z,93755.18
2018-04-10T02:05:57.955Z,93756.53
2018-04-10T02:08:26.205Z,93750.45
2018-04-10T02:10:54.453Z,93759.55
2018-04-10T02:13:23.467Z,93761.88
2018-04-10T02:15:51.710Z,93760.39
2018-04-10T02:18:19.963Z,93757.92
2018-04-10T02:20:48.238Z,93762.17
2018-04-10T02:23:16.474Z,93762.01
2018-04-10T02:25:45.495Z,93770.57
2018-04-10T02:28:13.735Z,93763.56
2018-04-10T02:30:42.751Z,93767.92
2018-04-10T02:33:11.011Z,93757.54
2018-04-10T02:35:39.265Z,93762.75
2018-04-10T02:38:07.514Z,93763.14
2018-04-10T02:40:35.769Z,93765.05
2018-04-10T02:43:04.786Z,93764.11
2018-04-10T02:45:33.046Z,93760.31
2018-04-10T02:48:02.063Z,93761.04
2018-04-10T02:50:30.317Z,93762.48
2018-04-10T02:52:59.335Z,93764.00
2018-04-10T02:55:27.598Z,93758.76
2018-04-10T02:57:56.602Z,93759.82
2018-04-10T03:00:25.619Z,93764.80
2018-04-10T03:02:53.873Z,93765.95
2018-04-10T03:05:22.970Z,93769.99
2018-04-10T03:07:51.985Z,93765.03
2018-04-10T03:10:21.496Z,93764.25
2018-04-10T03:12:49.759Z,93762.89
2018-04-10T03:15:18.922Z,93759.73
2018-04-10T03:17:47.158Z,93764.44
2018-04-10T03:20:15.420Z,93754.09
2018-04-10T03:22:43.685Z,93763.50
2018-04-10T03:25:11.929Z,93755.59
2018-04-10T03:27:41.426Z,93754.15
2018-04-10T03:30:09.666Z,93754.49
2018-04-10T03:32:38.697Z,93752.78
2018-04-10T03:35:06.927Z,93749.48
2018-04-10T03:37:35.187Z,93748.58
2018-04-10T03:40:03.450Z,93746.34
2018-04-10T03:42:31.691Z,93742.75
2018-04-10T03:45:00.716Z,93744.72
2018-04-10T03:47:28.977Z,93740.92
2018-04-10T03:49:57.242Z,93731.34
2018-04-10T03:52:26.262Z,93736.27
2018-04-10T03:54:54.502Z,93739.31
2018-04-10T03:57:22.758Z,93734.16
2018-04-10T03:59:50.998Z,93730.95
2018-04-10T04:02:19.282Z,93732.23
2018-04-10T04:04:47.531Z,93727.33
2018-04-10T04:07:15.782Z,93728.81
2018-04-10T04:09:44.035Z,93730.30
2018-04-10T04:12:12.283Z,93731.27
2018-04-10T04:14:41.291Z,93727.64
2018-04-10T04:17:34.114Z,93718.74
2018-04-10T04:20:20.559Z,93723.45
2018-04-10T04:22:48.823Z,93726.20
2018-04-10T04:25:17.074Z,93715.86
2018-04-10T04:27:46.095Z,93720.14
2018-04-10T04:30:14.334Z,93720.75
2018-04-10T04:32:42.590Z,93716.54
2018-04-10T04:35:11.434Z,93715.14
2018-04-10T04:37:40.448Z,93713.19
2018-04-10T04:40:08.685Z,93719.89
2018-04-10T04:42:36.942Z,93709.92
2018-04-10T04:45:05.207Z,93710.83
2018-04-10T04:47:33.463Z,93713.86
2018-04-10T04:50:01.708Z,93706.47
2018-04-10T04:52:29.953Z,93707.86
2018-04-10T04:54:58.208Z,93706.75
2018-04-10T04:57:26.597Z,93709.05
2018-04-10T04:59:54.841Z,93708.48
2018-04-10T05:02:23.854Z,93704.38
2018-04-10T05:04:52.875Z,93704.40
2018-04-10T05:07:21.123Z,93693.98
2018-04-10T05:09:50.140Z,93689.05
2018-04-10T05:12:18.378Z,93693.90
2018-04-10T05:14:46.640Z,93696.38
2018-04-10T05:17:14.956Z,93694.80
2018-04-10T05:19:43.979Z,93693.00
2018-04-10T05:22:12.221Z,93690.78
2018-04-10T05:24:40.471Z,93690.16
2018-04-10T05:27:08.726Z,93694.05
2018-04-10T05:29:36.979Z,93692.95
2018-04-10T05:32:06.001Z,93690.97
2018-04-10T05:34:34.258Z,93682.73
2018-04-10T05:37:03.275Z,93679.06
2018-04-10T05:39:31.515Z,93667.86
2018-04-10T05:41:59.781Z,93670.30
2018-04-10T05:44:28.018Z,93662.11
2018-04-10T05:46:56.276Z,93661.99
2018-04-10T05:49:25.314Z,93661.39
2018-04-10T05:51:53.700Z,93672.98
2018-04-10T05:54:21.954Z,93673.84
2018-04-10T05:56:50.217Z,93674.00
2018-04-10T05:59:20.490Z,93675.77
2018-04-10T06:01:48.748Z,93676.44
2018-04-10T06:04:17.017Z,93685.48
2018-04-10T06:06:45.284Z,93694.05
2018-04-10T06:09:14.314Z,93695.24
2018-04-10T06:11:42.574Z,93693.73
2018-04-10T06:14:10.830Z,93690.33
2018-04-10T06:16:39.094Z,93697.84
2018-04-10T06:19:07.339Z,93698.70
2018-04-10T06:21:35.603Z,93695.52
2018-04-10T06:24:03.853Z,93694.10
2018-04-10T06:26:32.882Z,93684.64
2018-04-10T06:29:01.131Z,93677.25
2018-04-10T06:31:30.175Z,93679.86
2018-04-10T06:33:58.426Z,93683.34
2018-04-10T06:36:28.706Z,93682.77
2018-04-10T06:38:56.955Z,93687.04
2018-04-10T06:41:25.225Z,93683.63
2018-04-10T06:43:53.473Z,93689.95
2018-04-10T06:46:21.751Z,93689.02
2018-04-10T06:48:49.997Z,93679.86
2018-04-10T06:51:18.270Z,93672.52
2018-04-10T06:53:46.533Z,93670.96
2018-04-10T06:56:14.787Z,93671.02
2018-04-10T06:58:43.820Z,93666.45
2018-04-10T07:01:12.074Z,93663.31
2018-04-10T07:03:41.101Z,93661.81
2018-04-10T07:06:09.350Z,93666.52
2018-04-10T07:08:37.606Z,93660.33
2018-04-10T07:11:05.863Z,93669.38
2018-04-10T07:13:34.118Z,93669.93
2018-04-10T07:16:02.366Z,93661.89
2018-04-10T07:18:31.404Z,93665.25
2018-04-10T07:20:59.692Z,93664.73
2018-04-10T07:23:27.930Z,93661.84
2018-04-10T07:25:56.951Z,93667.19
2018-04-10T07:28:25.212Z,93665.56
2018-04-10T07:30:53.482Z,93668.89
2018-04-10T07:33:23.758Z,93662.05
2018-04-10T07:35:52.019Z,93660.69
2018-04-10T07:38:20.284Z,93662.64
2018-04-10T07:40:48.549Z,93662.53
2018-04-10T07:43:17.637Z,93666.75
2018-04-10T07:45:46.679Z,93662.86
2018-04-10T07:48:14.942Z,93660.34
2018-04-10T07:50:43.195Z,93658.44
2018-04-10T07:53:12.235Z,93668.61
2018-04-10T07:55:40.490Z,93666.66
2018-04-10T07:58:08.766Z,93664.49
2018-04-10T08:00:37.792Z,93661.44
2018-04-10T08:03:06.062Z,93658.43
2018-04-10T08:05:34.336Z,93658.25
2018-04-10T08:08:02.614Z,93663.41
2018-04-10T08:10:30.890Z,93660.46
2018-04-10T08:12:59.932Z,93661.55
2018-04-10T08:15:29.936Z,93663.80
2018-04-10T08:17:58.196Z,93663.38
2018-04-10T08:20:26.458Z,93660.38
2018-04-10T08:22:55.486Z,93655.21
2018-04-10T08:27:56.290Z,93657.59
2018-04-10T08:30:25.322Z,93657.66
2018-04-10T08:32:53.587Z,93656.55
2018-04-10T08:35:21.865Z,93660.26
2018-04-10T08:37:50.136Z,93659.22
2018-04-10T08:40:18.402Z,93655.66
2018-04-10T08:42:47.419Z,93653.27
2018-04-10T08:45:15.692Z,93655.00
2018-04-10T08:47:43.947Z,93657.09
2018-04-10T08:50:12.238Z,93653.38
2018-04-10T08:52:41.282Z,93654.05
2018-04-10T08:55:09.567Z,93655.25
2018-04-10T08:57:37.838Z,93653.42
2018-04-10T09:00:06.108Z,93650.91
2018-04-10T09:02:34.894Z,93650.75
2018-04-10T09:05:03.153Z,93647.56
2018-04-10T09:07:32.181Z,93646.15
2018-04-10T09:10:00.907Z,93645.45
2018-04-10T09:12:29.374Z,93644.33
2018-04-10T09:14:57.634Z,93639.59
2018-04-10T09:17:25.890Z,93637.53
2018-04-10T09:19:54.932Z,93634.66
2018-04-10T09:22:23.210Z,93631.45
2018-04-10T09:24:51.474Z,93630.61
2018-04-10T09:27:19.751Z,93621.76
2018-04-10T09:29:48.015Z,93624.80
2018-04-10T09:32:17.052Z,93624.08
2018-04-10T09:34:45.324Z,93622.20
2018-04-10T09:37:13.590Z,93616.05
2018-04-10T09:39:41.858Z,93616.20
2018-04-10T09:42:10.891Z,93615.69
2018-04-10T09:44:39.155Z,93608.06
2018-04-10T09:47:07.451Z,93611.03
2018-04-10T09:49:35.706Z,93623.75
2018-04-10T09:52:04.011Z,93621.39
2018-04-10T09:54:32.280Z,93619.39
2018-04-10T09:57:00.682Z,93610.22
2018-04-10T09:59:31.202Z,93612.43
2018-04-10T10:01:59.564Z,93615.70
2018-04-10T10:04:28.597Z,93609.30
2018-04-10T10:06:56.884Z,93606.30
2018-04-10T10:09:25.631Z,93589.20
2018-04-10T10:11:54.680Z,93594.84
2018-04-10T10:14:23.725Z,93601.42
2018-04-10T10:16:52.866Z,93604.92
2018-04-10T10:19:21.140Z,93601.03
2018-04-10T10:21:49.422Z,93608.44
2018-04-10T10:24:17.711Z,93608.01
2018-04-10T10:26:45.974Z,93613.48
2018-04-10T10:29:14.239Z,93612.91
2018-04-10T10:31:42.512Z,93604.33
2018-04-10T10:34:11.562Z,93608.65
2018-04-10T10:36:39.842Z,93606.37
2018-04-10T10:39:08.097Z,93599.59
2018-04-10T10:41:36.364Z,93600.45
2018-04-10T10:44:04.634Z,93600.89
2018-04-10T10:46:33.675Z,93603.73
2018-04-10T10:49:01.951Z,93611.64
2018-04-10T10:51:30.207Z,93610.39
2018-04-10T10:53:58.495Z,93605.17
2018-04-10T10:56:26.759Z,93606.31
2018-04-10T10:58:55.052Z,93602.64
2018-04-10T11:01:23.311Z,93607.81
2018-04-10T11:03:52.369Z,93603.20
2018-04-10T11:06:20.636Z,93601.50
2018-04-10T11:08:48.906Z,93599.15
2018-04-10T11:11:17.177Z,93600.06
2018-04-10T11:13:45.455Z,93592.81
2018-04-10T11:16:13.715Z,93584.88
2018-04-10T11:18:42.743Z,93594.16
2018-04-10T11:21:10.996Z,93591.09
2018-04-10T11:23:40.026Z,93580.70
2018-04-10T11:26:08.286Z,93582.29
2018-04-10T11:28:36.554Z,93568.63
2018-04-10T11:31:06.823Z,93568.66
2018-04-10T11:33:35.120Z,93562.83
2018-04-10T11:36:04.145Z,93566.84
2018-04-10T11:38:32.401Z,93572.05
2018-04-10T11:41:00.666Z,93577.05
2018-04-10T11:43:28.922Z,93571.32
2018-04-10T11:45:57.204Z,93571.69
2018-04-10T11:48:25.484Z,93563.07
2018-04-10T11:50:54.501Z,93557.50
2018-04-10T11:53:22.746Z,93571.02
2018-04-10T11:55:51.778Z,93570.58
2018-04-10T11:58:20.039Z,93563.89
2018-04-10T12:00:48.310Z,93555.84
2018-04-10T12:03:17.331Z,93561.29
2018-04-10T12:05:45.606Z,93563.16
2018-04-10T12:08:13.898Z,93553.55
2018-04-10T12:10:42.146Z,93553.15
2018-04-10T12:13:11.182Z,93555.66
2018-04-10T12:15:39.847Z,93542.45
2018-04-10T12:18:08.095Z,93533.81
2018-04-10T12:20:36.371Z,93545.73
2018-04-10T12:23:04.648Z,93538.72
2018-04-10T12:25:32.925Z,93535.77
2018-04-10T12:28:01.176Z,93537.55
2018-04-10T12:30:29.463Z,93530.69
2018-04-10T12:32:57.712Z,93533.22
2018-04-10T12:35:25.978Z,93529.36
2018-04-10T12:37:55.030Z,93525.83
2018-04-10T12:40:23.301Z,93523.48
2018-04-10T12:42:51.560Z,93517.40
2018-04-10T12:45:20.102Z,93516.38
2018-04-10T12:47:48.386Z,93513.55
2018-04-10T12:50:16.652Z,93505.77
2018-04-10T12:52:44.940Z,93508.42
2018-04-10T12:55:13.190Z,93516.91
2018-04-10T12:57:41.671Z,93506.47
2018-04-10T13:00:09.946Z,93508.43
2018-04-10T13:02:38.227Z,93513.09
2018-04-10T13:05:06.525Z,93502.41
2018-04-10T13:07:34.825Z,93497.64
2018-04-10T13:10:03.062Z,93495.75
2018-04-10T13:12:31.338Z,93496.15
2018-04-10T13:14:59.597Z,93491.97
2018-04-10T13:17:28.627Z,93494.23
2018-04-10T13:19:56.878Z,93496.09
2018-04-10T13:22:26.110Z,93502.35
2018-04-10T13:24:54.367Z,93500.20
2018-04-10T13:27:22.642Z,93502.91
2018-04-10T13:29:51.662Z,93501.59
2018-04-10T13:32:19.938Z,93495.42
2018-04-10T13:34:48.187Z,93497.86
2018-04-10T13:37:17.211Z,93500.05
2018-04-10T13:39:45.467Z,93503.48
2018-04-10T13:42:14.503Z,93496.23
2018-04-10T13:44:42.761Z,93505.33
2018-04-10T13:47:11.019Z,93502.98
2018-04-10T13:49:39.287Z,93502.28
2018-04-10T13:52:07.594Z,93508.39
2018-04-10T13:54:36.623Z,93512.91
2018-04-10T13:57:04.880Z,93501.88
2018-04-10T13:59:33.915Z,93512.92
2018-04-10T14:02:02.167Z,93508.31
2018-04-10T14:04:30.426Z,93501.71
2018-04-10T14:06:59.450Z,93504.02
2018-04-10T14:09:27.718Z,93494.55
2018-04-10T14:11:55.988Z,93501.47
2018-04-10T14:14:25.018Z,93494.89
2018-04-10T14:16:53.271Z,93493.66
2018-04-10T14:19:22.302Z,93491.99
2018-04-10T14:21:51.802Z,93488.59
2018-04-10T14:24:20.075Z,93491.42
2018-04-10T14:26:48.314Z,93495.11
2018-04-10T14:29:16.580Z,93498.29
2018-04-10T14:31:44.866Z,93494.06
2018-04-10T14:34:13.098Z,93496.29
2018-04-10T14:36:41.371Z,93495.33
2018-04-10T14:39:09.636Z,93498.06
2018-04-10T14:41:38.659Z,93483.60
2018-04-10T14:44:06.945Z,93493.00
2018-04-10T14:46:35.207Z,93501.07
2018-04-10T14:49:04.347Z,93495.81
2018-04-10T14:51:32.594Z,93498.66
2018-04-10T14:54:00.862Z,93489.73
2018-04-10T14:56:29.887Z,93501.15
2018-04-10T14:58:58.146Z,93497.81
2018-04-10T15:01:26.398Z,93495.03
2018-04-10T15:03:54.668Z,93499.78
2018-04-10T15:06:22.923Z,93505.77
2018-04-10T15:08:51.190Z,93503.77
2018-04-10T15:11:19.450Z,93506.33
2018-04-10T15:13:47.707Z,93505.66
2018-04-10T15:16:15.980Z,93508.88
2018-04-10T15:18:44.233Z,93515.39
2018-04-10T15:21:12.499Z,93509.81
2018-04-10T15:23:40.750Z,93512.20
2018-04-10T15:26:09.787Z,93518.19
2018-04-10T15:28:38.051Z,93521.26
2018-04-10T15:31:06.307Z,93516.19
2018-04-10T15:33:35.323Z,93527.09
2018-04-10T15:36:03.590Z,93527.09
2018-04-10T15:38:32.612Z,93521.39
2018-04-10T15:41:00.942Z,93537.39
2018-04-10T15:43:29.154Z,93530.05
2018-04-10T15:45:57.435Z,93534.70
2018-04-10T15:48:25.698Z,93531.86
2018-04-10T15:50:54.727Z,93530.80
2018-04-10T15:53:24.982Z,93535.20
2018-04-10T15:55:53.262Z,93528.63
2018-04-10T15:58:22.277Z,93529.00
2018-04-10T16:00:51.636Z,93524.84
2018-04-10T16:03:19.908Z,93530.16
2018-04-10T16:05:48.154Z,93524.20
2018-04-10T16:08:16.433Z,93524.02
2018-04-10T16:10:44.691Z,93525.76
2018-04-10T16:13:12.969Z,93528.28
2018-04-10T16:15:41.231Z,93532.56
2018-04-10T16:18:09.501Z,93527.38
2018-04-10T16:20:37.763Z,93533.00
2018-04-10T16:23:06.808Z,93535.33
2018-04-10T16:25:35.067Z,93535.41
2018-04-10T16:28:03.335Z,93534.23
2018-04-10T16:30:31.590Z,93536.67
2018-04-10T16:33:00.615Z,93525.94
2018-04-10T16:35:28.884Z,93520.92
2018-04-10T16:37:57.906Z,93522.25
2018-04-10T16:40:26.163Z,93518.54
2018-04-10T16:42:54.456Z,93519.96
2018-04-10T16:45:23.466Z,93519.92
2018-04-10T16:47:51.738Z,93519.64
2018-04-10T16:50:20.019Z,93512.41
2018-04-10T16:52:48.315Z,93513.78
2018-04-10T16:55:16.606Z,93513.17
2018-04-10T16:57:44.905Z,93515.13
2018-04-10T17:00:13.318Z,93518.78
2018-04-10T17:02:42.345Z,93523.80
2018-04-10T17:05:10.596Z,93518.09
2018-04-10T17:07:39.638Z,93524.81
2018-04-10T17:10:07.915Z,93523.80
2018-04-10T17:12:36.243Z,93527.81
2018-04-10T17:15:05.721Z,93533.72
2018-04-10T17:17:33.975Z,93529.83
2018-04-10T17:20:02.268Z,93530.13
2018-04-10T17:22:30.863Z,93526.69
2018-04-10T17:24:59.369Z,93529.42
2018-04-10T17:27:27.607Z,93532.50
2018-04-10T17:29:55.894Z,93534.42
2018-04-10T17:32:24.175Z,93542.58
2018-04-10T17:34:52.463Z,93548.41
2018-04-10T17:37:20.717Z,93544.73
2018-04-10T17:39:48.997Z,93557.62
2018-04-10T17:42:18.028Z,93546.00
2018-04-10T17:44:46.308Z,93550.09
2018-04-10T17:47:14.590Z,93555.66
2018-04-10T17:49:42.872Z,93558.55
2018-04-10T17:52:11.137Z,93558.81
2018-04-10T17:54:39.466Z,93565.27
2018-04-10T17:57:07.742Z,93568.86
2018-04-10T17:59:36.027Z,93565.30
2018-04-10T18:02:04.302Z,93564.70
2018-04-10T18:04:32.585Z,93567.94
2018-04-10T18:07:00.868Z,93575.79
2018-04-10T18:09:29.170Z,93570.41
2018-04-10T18:11:58.212Z,93581.07
2018-04-10T18:14:26.479Z,93584.25
2018-04-10T18:16:54.756Z,93580.49
2018-04-10T18:19:23.077Z,93596.13
2018-04-10T18:21:51.352Z,93599.89
2018-04-10T18:24:19.636Z,93602.77
2018-04-10T18:26:47.942Z,93604.22
2018-04-10T18:29:16.213Z,93613.48
2018-04-10T18:31:44.490Z,93623.89
2018-04-10T18:34:12.775Z,93620.80
2018-04-10T18:36:41.070Z,93618.47
2018-04-10T18:39:09.354Z,93625.22
2018-04-10T18:41:37.656Z,93640.71
2018-04-10T18:44:06.691Z,93657.63
2018-04-10T18:46:34.976Z,93664.59
2018-04-10T18:49:03.245Z,93682.22
2018-04-10T18:51:31.524Z,93691.63
2018-04-10T18:53:59.802Z,93695.91
2018-04-10T18:56:28.080Z,93699.55
2018-04-10T18:58:56.353Z,93709.66
2018-04-10T19:01:24.629Z,93719.80
2018-04-10T19:03:52.905Z,93730.35
2018-04-10T19:06:21.931Z,93739.65
2018-04-10T19:08:50.187Z,93746.60
2018-04-10T19:11:18.967Z,93747.50
2018-04-10T19:13:47.988Z,93757.38
2018-04-10T19:16:16.268Z,93758.95
2018-04-10T19:18:44.540Z,93763.70
2018-04-10T19:21:12.812Z,93766.89
2018-04-10T19:23:41.835Z,93782.55
2018-04-10T19:26:10.115Z,93790.50
2018-04-10T19:28:38.362Z,93799.52
2018-04-10T19:31:07.387Z,93799.00
2018-04-10T19:33:35.640Z,93804.35
2018-04-10T19:36:04.650Z,93813.45
2018-04-10T19:38:33.680Z,93815.35
2018-04-10T19:41:02.151Z,93816.65
2018-04-10T19:43:30.423Z,93817.05
2018-04-10T19:45:59.458Z,93817.34
2018-04-10T19:48:27.736Z,93819.16
2018-04-10T19:50:55.989Z,93823.84
2018-04-10T19:53:24.273Z,93830.33
2018-04-10T19:55:52.519Z,93838.38
2018-04-10T19:58:21.571Z,93845.02
2018-04-10T20:00:49.826Z,93850.10
2018-04-10T20:03:18.095Z,93857.33
2018-04-10T20:05:46.363Z,93857.25
2018-04-10T20:08:15.394Z,93860.11
2018-04-10T20:10:43.658Z,93869.36
2018-04-10T20:13:11.935Z,93868.87
2018-04-10T20:15:40.959Z,93872.41
2018-04-10T20:18:09.219Z,93882.11
2018-04-10T20:20:37.474Z,93877.72
2018-04-10T20:23:05.750Z,93889.56
2018-04-10T20:25:34.012Z,93883.13
2018-04-10T20:28:02.282Z,93886.47
2018-04-10T20:30:31.309Z,93883.67
2018-04-10T20:32:59.585Z,93878.93
2018-04-10T20:35:27.845Z,93881.98
2018-04-10T20:37:56.898Z,93872.47
2018-04-10T20:40:25.927Z,93876.10
2018-04-10T20:42:54.198Z,93883.42
2018-04-10T20:45:22.463Z,93883.76
2018-04-10T20:47:50.730Z,93886.56
2018-04-10T20:50:19.755Z,93891.72
2018-04-10T20:52:48.066Z,93898.52
2018-04-10T20:55:16.323Z,93908.45
2018-04-10T20:57:44.607Z,93907.39
2018-04-10T21:00:12.880Z,93913.53
2018-04-10T21:02:41.150Z,93919.66
2018-04-10T21:05:09.419Z,93921.59
2018-04-10T21:07:38.472Z,93931.25
2018-04-10T21:10:06.731Z,93932.81
2018-04-10T21:12:34.978Z,93930.07
2018-04-10T21:15:04.218Z,93933.20
2018-04-10T21:17:32.493Z,93943.52
2018-04-10T21:20:00.767Z,93952.42
2018-04-10T21:22:29.031Z,93949.39
2018-04-10T21:24:57.298Z,93946.89
2018-04-10T21:27:26.335Z,93948.43
2018-04-10T21:29:54.601Z,93945.58
2018-04-10T21:32:22.850Z,93962.16
2018-04-10T21:34:51.885Z,93958.53
2018-04-10T21:37:20.157Z,93955.09
2018-04-10T21:39:48.424Z,93958.53
2018-04-10T21:42:17.439Z,93956.00
2018-04-10T21:44:45.707Z,93962.36
2018-04-10T21:47:13.976Z,93966.80
2018-04-10T21:49:44.250Z,93962.34
2018-04-10T21:52:12.516Z,93962.53
2018-04-10T21:54:40.795Z,93958.59
2018-04-10T21:57:09.084Z,93956.56
2018-04-10T21:59:38.407Z,93963.53
2018-04-10T22:02:06.679Z,93967.77
2018-04-10T22:04:34.942Z,93973.94
2018-04-10T22:07:03.203Z,93964.23
2018-04-10T22:09:31.470Z,93962.36
2018-04-10T22:12:00.494Z,93954.69
2018-04-10T22:14:28.743Z,93957.89
2018-04-10T22:16:57.775Z,93969.53
2018-04-10T22:19:26.024Z,93977.80
2018-04-10T22:21:55.048Z,93985.56
2018-04-10T22:24:23.291Z,93975.81
2018-04-10T22:26:51.700Z,93978.64
2018-04-10T22:29:20.714Z,93977.62
2018-04-10T22:31:48.970Z,93984.23
2018-04-10T22:34:17.960Z,93975.28
2018-04-10T22:36:46.225Z,93976.06
2018-04-10T22:39:15.252Z,93973.66
2018-04-10T22:41:44.764Z,93980.52
2018-04-10T22:44:14.515Z,93977.23
2018-04-10T22:46:42.767Z,93973.50
2018-04-10T22:49:11.772Z,93974.48
2018-04-10T22:51:40.044Z,93974.72
2018-04-10T22:54:08.286Z,93982.66
2018-04-10T22:56:36.538Z,93981.08
2018-04-10T22:59:04.793Z,93980.27
2018-04-10T23:01:33.042Z,93985.84
2018-04-10T23:04:01.292Z,93987.06
2018-04-10T23:06:29.549Z,93990.02
2018-04-10T23:08:57.801Z,93994.05
2018-04-10T23:11:26.078Z,93997.55
2018-04-10T23:13:54.327Z,94005.08
2018-04-10T23:16:22.595Z,93999.28
2018-04-10T23:18:50.844Z,94005.22
2018-04-10T23:21:19.095Z,94002.95
2018-04-10T23:23:48.116Z,94008.30
2018-04-10T23:26:16.379Z,94004.61
2018-04-10T23:28:44.650Z,94010.05
2018-04-10T23:31:13.680Z,94013.77
2018-04-10T23:33:41.956Z,94015.70
2018-04-10T23:36:10.219Z,94016.89
2018-04-10T23:38:39.236Z,94018.31
2018-04-10T23:41:07.501Z,94017.52
2018-04-10T23:43:35.968Z,94025.38
2018-04-10T23:46:04.216Z,94025.87
2018-04-10T23:48:32.478Z,94028.17
2018-04-10T23:51:00.743Z,94026.98
2018-04-10T23:53:29.015Z,94026.48
2018-04-10T23:55:58.031Z,94033.34
2018-04-10T23:58:26.296Z,94044.91
